Time;durP1;ratioP1;P1;durP2;ratioP2;P2;SDS_P1;SDS_P2;PMS_P1;PMS_P2;Temp;Humidity;BMP_temperature;BMP_pressure;BME280_temperature;BME280_humidity;BME280_pressure;Samples;Min_cycle;Max_cycle;Signal;HPM_P1;HPM_P2
2022/04/14 00:02:10;;;;;;;67.40;50.03;;;;;;;11.34;100.00;101897.38;5098551;28;20031;-85
2022/04/14 00:04:36;;;;;;;69.23;51.10;;;;;;;11.37;100.00;101897.84;5100391;28;20833;-84
2022/04/14 00:07:02;;;;;;;68.23;50.60;;;;;;;11.36;100.00;101917.03;5101333;28;20061;-84
2022/04/14 00:09:28;;;;;;;69.57;51.03;;;;;;;11.27;100.00;101890.03;5095905;28;20038;-84
2022/04/14 00:11:54;;;;;;;72.40;50.80;;;;;;;11.28;100.00;101888.97;5101488;28;20110;-86
2022/04/14 00:14:20;;;;;;;70.73;52.40;;;;;;;11.31;100.00;101893.16;5096668;28;20077;-83
2022/04/14 00:16:45;;;;;;;67.77;49.37;;;;;;;11.22;100.00;101884.31;5101125;28;20032;-89
2022/04/14 00:19:11;;;;;;;68.70;49.53;;;;;;;11.24;100.00;101886.84;5097656;28;20060;-86
2022/04/14 00:21:36;;;;;;;69.90;51.50;;;;;;;11.20;100.00;101874.69;5102053;28;20059;-84
2022/04/14 00:24:02;;;;;;;66.97;51.53;;;;;;;11.17;100.00;101881.31;5099055;28;20023;-84
2022/04/14 00:26:27;;;;;;;67.13;50.33;;;;;;;11.14;100.00;101879.00;5100504;28;20372;-85
2022/04/14 00:28:52;;;;;;;65.10;50.03;;;;;;;11.09;100.00;101879.56;5096752;28;20119;-84
2022/04/14 00:31:18;;;;;;;65.07;49.53;;;;;;;11.13;100.00;101882.75;5098396;28;20031;-84
2022/04/14 00:33:43;;;;;;;63.97;49.30;;;;;;;11.11;100.00;101882.06;5102212;28;20131;-91
2022/04/14 00:36:09;;;;;;;64.83;49.30;;;;;;;10.95;100.00;101867.72;5098813;28;20449;-87
2022/04/14 00:38:34;;;;;;;63.23;49.77;;;;;;;10.94;100.00;101860.59;5099239;28;20112;-84
2022/04/14 00:41:00;;;;;;;63.60;48.93;;;;;;;11.05;100.00;101880.97;5095766;28;20483;-84
2022/04/14 00:43:33;;;;;;;61.40;48.43;;;;;;;10.95;100.00;101866.88;5104126;28;20122;-84
2022/04/14 00:46:00;;;;;;;66.45;47.20;;;;;;;10.99;100.00;101876.31;5096512;28;20039;-87
2022/04/14 00:48:27;;;;;;;65.77;50.13;;;;;;;11.03;100.00;101884.91;5100289;28;20043;-84
2022/04/14 00:50:52;;;;;;;63.00;48.97;;;;;;;11.02;100.00;101883.25;5102845;28;20040;-84
2022/04/14 00:53:18;;;;;;;63.93;50.37;;;;;;;10.97;100.00;101876.50;5103991;28;20034;-84
2022/04/14 00:55:43;;;;;;;64.33;49.30;;;;;;;10.94;100.00;101870.63;5104086;28;20031;-83
2022/04/14 00:58:09;;;;;;;67.67;52.93;;;;;;;10.93;100.00;101864.38;5101671;28;20024;-84
2022/04/14 01:00:35;;;;;;;66.03;51.23;;;;;;;10.94;100.00;101876.88;5103097;28;20031;-83
2022/04/14 01:03:01;;;;;;;66.77;51.33;;;;;;;10.97;100.00;101873.81;5101851;28;20067;-85
2022/04/14 01:05:27;;;;;;;67.07;50.53;;;;;;;10.94;100.00;101876.88;5100332;28;20479;-83
2022/04/14 01:07:55;;;;;;;66.63;51.50;;;;;;;10.91;100.00;101868.28;5099877;28;20059;-84
2022/04/14 01:10:20;;;;;;;66.87;50.43;;;;;;;10.92;100.00;101873.53;5104192;28;20034;-83
2022/04/14 01:12:45;;;;;;;63.63;48.80;;;;;;;10.89;100.00;101870.34;5101650;28;20024;-87
2022/04/14 01:15:14;;;;;;;66.20;51.43;;;;;;;10.96;100.00;101879.38;5102662;28;20478;-84
2022/04/14 01:17:41;;;;;;;67.87;50.57;;;;;;;10.83;100.00;101865.69;5104019;28;20031;-84
2022/04/14 01:20:09;;;;;;;66.20;51.13;;;;;;;10.80;100.00;101858.75;5104072;28;20032;-84
2022/04/14 01:23:03;;;;;;;65.87;50.37;;;;;;;10.76;100.00;101857.47;5101903;28;20022;-83
2022/04/14 01:25:30;;;;;;;64.93;50.63;;;;;;;10.78;100.00;101864.38;5102548;28;20035;-83
2022/04/14 01:27:55;;;;;;;67.83;51.17;;;;;;;10.68;100.00;101850.25;5098434;28;20110;-85
2022/04/14 01:30:21;;;;;;;65.27;50.77;;;;;;;10.64;100.00;101844.34;5085179;28;20118;-84
2022/04/14 01:32:47;;;;;;;66.00;51.03;;;;;;;10.66;100.00;101851.47;5099869;28;20110;-83
2022/04/14 01:35:13;;;;;;;67.33;50.53;;;;;;;10.76;100.00;101857.47;5099134;28;20454;-84
2022/04/14 01:37:38;;;;;;;67.50;51.63;;;;;;;10.71;100.00;101854.47;5104127;28;20098;-84
2022/04/14 01:40:05;;;;;;;66.63;50.23;;;;;;;10.63;100.00;101844.56;5103507;28;20043;-83
2022/04/14 01:42:30;;;;;;;68.03;50.93;;;;;;;10.67;100.00;101851.28;5120953;27;20352;-85
2022/04/14 01:44:56;;;;;;;63.47;49.60;;;;;;;10.71;100.00;101859.88;5098046;28;20019;-84
2022/04/14 01:47:21;;;;;;;63.70;49.10;;;;;;;10.73;100.00;101874.06;5101563;28;20028;-83
2022/04/14 01:49:46;;;;;;;65.77;50.40;;;;;;;10.73;100.00;101863.22;5101191;28;20024;-90
2022/04/14 01:52:12;;;;;;;65.37;50.53;;;;;;;10.65;100.00;101861.47;5101153;28;20558;-83
2022/04/14 01:54:37;;;;;;;64.10;49.60;;;;;;;10.75;100.00;101872.03;5096776;28;20034;-85
2022/04/14 01:57:03;;;;;;;66.53;50.97;;;;;;;10.57;100.00;101851.56;5101520;28;20036;-87
2022/04/14 01:59:29;;;;;;;65.30;50.27;;;;;;;10.54;100.00;101843.81;5098275;28;20023;-84
2022/04/14 02:01:54;;;;;;;67.13;51.13;;;;;;;10.62;100.00;101862.69;5100758;28;20503;-83
2022/04/14 02:04:20;;;;;;;66.43;50.57;;;;;;;10.61;100.00;101871.84;5102047;28;20078;-83
2022/04/14 02:06:45;;;;;;;68.03;50.77;;;;;;;10.72;100.00;101888.69;5100481;28;20051;-84
2022/04/14 02:09:12;;;;;;;67.80;49.50;;;;;;;10.66;100.00;101890.25;5094639;28;20027;-83
2022/04/14 02:11:37;;;;;;;66.90;49.87;;;;;;;10.61;100.00;101884.56;5100112;28;20078;-84
2022/04/14 02:14:03;;;;;;;68.97;51.33;;;;;;;10.48;100.00;101863.53;5099626;28;20040;-83
2022/04/14 02:16:29;;;;;;;69.37;51.43;;;;;;;10.49;100.00;101867.91;5099751;28;20020;-89
2022/04/14 02:18:54;;;;;;;66.70;50.73;;;;;;;10.41;100.00;101860.72;5101060;28;20039;-83
2022/04/14 02:21:19;;;;;;;65.10;50.03;;;;;;;10.46;100.00;101865.59;5100089;28;20024;-89
2022/04/14 02:23:45;;;;;;;65.13;49.90;;;;;;;10.52;100.00;101886.50;5099906;28;20123;-83
2022/04/14 02:26:10;;;;;;;66.47;50.27;;;;;;;10.37;100.00;101859.41;5085469;28;20078;-85
2022/04/14 02:28:36;;;;;;;68.50;49.20;;;;;;;10.39;100.00;101876.31;5099981;28;20034;-83
2022/04/14 02:31:01;;;;;;;64.80;49.97;;;;;;;10.34;100.00;101862.47;5102421;28;20076;-84
2022/04/14 02:33:26;;;;;;;66.33;49.93;;;;;;;10.25;100.00;101861.72;5099666;28;20070;-84
2022/04/14 02:35:52;;;;;;;69.67;51.27;;;;;;;10.25;100.00;101863.56;5097331;28;20494;-83
2022/04/14 02:38:17;;;;;;;68.50;51.33;;;;;;;10.39;100.00;101894.44;5099128;28;20040;-84
2022/04/14 02:40:43;;;;;;;69.37;51.03;;;;;;;10.30;100.00;101880.09;5101161;28;20051;-83
2022/04/14 02:43:08;;;;;;;66.07;49.13;;;;;;;10.29;100.00;101883.84;5101830;28;20020;-83
2022/04/14 02:45:34;;;;;;;68.43;49.93;;;;;;;10.26;100.00;101879.63;5100343;28;21465;-85
2022/04/14 02:47:59;;;;;;;67.80;51.37;;;;;;;10.18;100.00;101878.88;5100639;28;20059;-83
2022/04/14 02:50:26;;;;;;;71.20;51.40;;;;;;;10.21;100.00;101875.78;5100331;28;20085;-82
2022/04/14 02:52:51;;;;;;;67.67;49.40;;;;;;;10.26;100.00;101887.75;5101284;28;23726;-83
2022/04/14 02:55:19;;;;;;;64.27;48.13;;;;;;;10.14;100.00;101881.09;5099213;28;20189;-83
2022/04/14 02:57:45;;;;;;;62.67;48.20;;;;;;;10.22;100.00;101881.03;5100131;28;20494;-83
2022/04/14 03:00:11;;;;;;;62.70;48.33;;;;;;;10.29;100.00;101894.66;5098366;28;20046;-86
2022/04/14 03:02:37;;;;;;;64.20;48.30;;;;;;;10.18;100.00;101877.00;5100531;28;20059;-83
2022/04/14 03:05:04;;;;;;;59.70;45.90;;;;;;;10.08;100.00;101871.84;5100018;28;20495;-83
2022/04/14 03:07:29;;;;;;;63.93;48.00;;;;;;;10.14;100.00;101895.50;5100320;28;20035;-83
2022/04/14 03:09:55;;;;;;;59.03;46.13;;;;;;;10.07;100.00;101867.44;5099082;28;20047;-87
2022/04/14 03:12:20;;;;;;;60.03;47.30;;;;;;;10.12;100.00;101883.16;5100662;28;20031;-83
2022/04/14 03:14:50;;;;;;;63.27;48.57;;;;;;;10.20;100.00;101893.06;5100188;28;20030;-83
2022/04/14 03:17:16;;;;;;;131.77;34.83;;;;;;;9.79;100.00;101870.75;5095274;28;20428;-83
2022/04/14 03:19:42;;;;;;;56.30;44.43;;;;;;;10.02;100.00;101888.81;5100401;28;20028;-86
2022/04/14 03:22:07;;;;;;;58.60;45.33;;;;;;;9.91;100.00;101873.88;5096956;28;20164;-83
2022/04/14 03:24:33;;;;;;;61.80;46.07;;;;;;;9.91;100.00;101881.13;5099998;28;20031;-83
2022/04/14 03:26:58;;;;;;;59.57;46.53;;;;;;;9.90;100.00;101883.00;5099633;28;20446;-83
2022/04/14 03:29:24;;;;;;;61.97;46.00;;;;;;;9.95;100.00;101896.00;5101141;28;20084;-84
2022/04/14 03:31:49;;;;;;;61.67;47.77;;;;;;;9.84;100.00;101880.19;5101168;28;20044;-85
2022/04/14 03:34:15;;;;;;;61.57;48.30;;;;;;;9.86;100.00;101894.38;5100293;28;20030;-84
2022/04/14 03:36:40;;;;;;;65.23;49.10;;;;;;;9.73;100.00;101867.91;5099079;28;20451;-83
2022/04/14 03:39:06;;;;;;;65.90;49.10;;;;;;;9.74;100.00;101875.03;5096089;28;20059;-83
2022/04/14 03:41:31;;;;;;;70.87;51.03;;;;;;;9.79;100.00;101883.41;5103102;28;20094;-83
2022/04/14 03:43:57;;;;;;;72.73;50.77;;;;;;;9.78;100.00;101887.16;5082613;28;20036;-83
2022/04/14 03:46:23;;;;;;;76.23;52.53;;;;;;;9.69;100.00;101861.19;5102604;28;20539;-83
2022/04/14 03:48:49;;;;;;;77.90;53.80;;;;;;;9.79;100.00;101894.25;5100820;28;20039;-83
2022/04/14 03:51:14;;;;;;;75.57;53.03;;;;;;;9.69;100.00;101880.13;5100197;28;20682;-83
2022/04/14 03:53:41;;;;;;;77.27;53.40;;;;;;;9.61;100.00;101865.66;5091052;28;20016;-87
2022/04/14 03:56:06;;;;;;;75.77;53.00;;;;;;;9.70;100.00;101885.34;5079124;28;20082;-83
2022/04/14 03:58:32;;;;;;;76.70;51.57;;;;;;;9.68;100.00;101883.84;5097540;28;20546;-85
2022/04/14 04:00:57;;;;;;;76.60;51.87;;;;;;;9.61;100.00;101876.47;5096188;28;20040;-83
2022/04/14 04:03:23;;;;;;;78.10;51.80;;;;;;;9.66;100.00;101886.75;5101952;28;20034;-83
2022/04/14 04:05:48;;;;;;;80.97;52.17;;;;;;;9.57;100.00;101874.28;5100762;28;20852;-84
2022/04/14 04:08:14;;;;;;;77.87;50.47;;;;;;;9.61;100.00;101881.03;5098729;28;20512;-83
2022/04/14 04:10:39;;;;;;;81.67;51.67;;;;;;;9.54;100.00;101875.50;5091148;28;20501;-83
2022/04/14 04:13:05;;;;;;;110.10;51.93;;;;;;;9.68;100.00;101911.75;5098525;28;20022;-85
2022/04/14 04:15:30;;;;;;;131.63;53.40;;;;;;;9.45;100.00;101882.81;5100349;28;20595;-85
2022/04/14 04:17:56;;;;;;;167.03;53.37;;;;;;;9.36;100.00;101880.34;5100778;28;20104;-84
2022/04/14 04:20:21;;;;;;;178.63;53.93;;;;;;;9.43;100.00;101902.97;5107163;28;21108;-83
2022/04/14 04:22:47;;;;;;;200.57;55.93;;;;;;;9.25;100.00;101884.31;5100198;28;20530;-83
2022/04/14 04:25:12;;;;;;;232.23;54.80;;;;;;;9.31;100.00;101907.09;5100970;28;20048;-83
2022/04/14 04:27:38;;;;;;;245.60;54.43;;;;;;;9.25;100.00;101904.06;5097856;28;20387;-86
2022/04/14 04:30:05;;;;;;;262.50;55.53;;;;;;;9.19;100.00;101896.66;5102678;28;20038;-83
2022/04/14 04:32:33;;;;;;;210.30;56.60;;;;;;;9.16;100.00;101888.91;5099630;28;20030;-87
2022/04/14 04:35:08;;;;;;;167.27;57.63;;;;;;;9.11;100.00;101894.00;5097550;28;20028;-83
2022/04/14 04:37:33;;;;;;;147.67;54.43;;;;;;;9.25;100.00;101912.19;5105056;28;20023;-83
2022/04/14 04:39:59;;;;;;;238.93;53.97;;;;;;;9.27;100.00;101925.53;5102671;28;20051;-83
2022/04/14 04:42:24;;;;;;;166.20;52.17;;;;;;;9.17;100.00;101912.22;5098685;28;20363;-83
2022/04/14 04:44:50;;;;;;;182.23;51.47;;;;;;;9.09;100.00;101902.28;5095434;28;20040;-84
2022/04/14 04:47:16;;;;;;;153.57;50.70;;;;;;;9.18;100.00;101922.03;5102682;28;20054;-85
2022/04/14 04:49:42;;;;;;;159.43;49.97;;;;;;;9.19;100.00;101920.97;5102831;28;20036;-90
2022/04/14 04:52:07;;;;;;;153.70;49.87;;;;;;;9.03;100.00;101899.44;5103434;28;20040;-83
2022/04/14 04:54:32;;;;;;;168.47;50.03;;;;;;;9.08;100.00;101914.13;5101409;28;20047;-84
2022/04/14 04:56:58;;;;;;;126.57;48.33;;;;;;;9.05;100.00;101903.66;5103034;28;20433;-83
2022/04/14 04:59:23;;;;;;;209.30;44.30;;;;;;;9.03;100.00;101919.22;5103377;28;20039;-83
2022/04/14 05:01:49;;;;;;;213.00;46.83;;;;;;;8.92;100.00;101909.63;5100758;28;20649;-82
2022/04/14 05:04:14;;;;;;;202.57;47.50;;;;;;;8.90;100.00;101908.13;5100582;28;20449;-82
2022/04/14 05:06:39;;;;;;;185.63;50.80;;;;;;;8.91;100.00;101912.50;5085722;28;20099;-85
2022/04/14 05:09:06;;;;;;;245.17;54.40;;;;;;;8.96;100.00;101926.31;5104780;28;20034;-82
2022/04/14 05:11:31;;;;;;;221.10;53.90;;;;;;;8.89;100.00;101923.47;5101791;28;20051;-87
2022/04/14 05:13:56;;;;;;;188.30;53.63;;;;;;;8.82;100.00;101919.78;5079135;28;20036;-82
2022/04/14 05:16:22;;;;;;;143.77;53.23;;;;;;;8.84;100.00;101925.88;5102719;28;20031;-82
2022/04/14 05:18:48;;;;;;;171.03;55.07;;;;;;;8.86;100.00;101933.81;5102859;28;20034;-83
2022/04/14 05:21:14;;;;;;;133.17;53.80;;;;;;;8.92;100.00;101950.19;5103488;28;20467;-83
2022/04/14 05:23:39;;;;;;;119.37;52.20;;;;;;;8.72;100.00;101916.47;5100660;28;20497;-88
2022/04/14 05:26:05;;;;;;;111.33;52.17;;;;;;;8.80;100.00;101938.06;5100103;28;20031;-87
2022/04/14 05:28:30;;;;;;;112.73;53.33;;;;;;;8.71;100.00;101933.69;5103076;28;20031;-87
2022/04/14 05:30:55;;;;;;;89.03;52.03;;;;;;;8.71;100.00;101942.63;5105176;28;20032;-82
2022/04/14 05:33:21;;;;;;;87.33;51.20;;;;;;;8.57;100.00;101933.38;5103209;28;20062;-86
2022/04/14 05:35:46;;;;;;;81.57;48.07;;;;;;;8.54;100.00;101935.56;5102594;28;20039;-82
2022/04/14 05:38:12;;;;;;;92.80;49.83;;;;;;;8.55;100.00;101946.19;5102164;28;20039;-86
2022/04/14 05:40:45;;;;;;;77.00;47.47;;;;;;;8.48;100.00;101931.69;5102739;28;20103;-82
2022/04/14 05:43:25;;;;;;;72.97;48.57;;;;;;;8.49;100.00;101946.06;5098548;28;20367;-82
2022/04/14 05:45:50;;;;;;;78.37;46.23;;;;;;;8.52;100.00;101962.75;5102887;28;20028;-82
2022/04/14 05:48:17;;;;;;;80.17;47.77;;;;;;;8.52;100.00;101962.75;5085479;28;20039;-83
2022/04/14 05:50:44;;;;;;;100.97;47.47;;;;;;;8.40;100.00;101958.69;5101522;28;20695;-82
2022/04/14 05:53:10;;;;;;;90.90;44.10;;;;;;;8.37;100.00;101962.56;5096450;28;20363;-84
2022/04/14 05:55:36;;;;;;;90.70;45.10;;;;;;;8.42;100.00;101967.47;5096626;28;20556;-82
2022/04/14 05:58:05;;;;;;;90.00;46.10;;;;;;;8.48;100.00;101972.19;5102034;28;20024;-82
2022/04/14 06:00:32;;;;;;;78.57;45.63;;;;;;;8.41;100.00;101958.50;5092464;28;20043;-83
2022/04/14 06:02:59;;;;;;;68.37;46.50;;;;;;;8.58;100.00;101972.03;5095609;28;20019;-82
2022/04/14 06:05:32;;;;;;;65.87;46.93;;;;;;;8.63;100.00;101983.16;5109397;28;20497;-83
2022/04/14 06:07:58;;;;;;;61.43;45.87;;;;;;;8.71;100.00;101976.91;5115269;28;20128;-82
2022/04/14 06:10:24;;;;;;;57.73;44.70;;;;;;;8.60;100.00;101951.94;5109175;28;20038;-82
2022/04/14 06:12:50;;;;;;;58.83;44.33;;;;;;;8.73;100.00;101969.47;5099182;28;22429;-82
2022/04/14 06:15:19;;;;;;;54.90;42.87;;;;;;;8.80;100.00;101967.78;5102033;28;20039;-87
2022/04/14 06:17:45;;;;;;;57.23;44.20;;;;;;;8.79;100.00;101969.63;5101671;28;20023;-82
2022/04/14 06:20:11;;;;;;;55.13;43.67;;;;;;;8.78;100.00;101964.38;5100621;28;20035;-87
2022/04/14 06:22:41;;;;;;;52.33;41.97;;;;;;;8.79;100.00;101957.97;5096314;28;20035;-82
2022/04/14 06:25:16;;;;;;;49.30;40.30;;;;;;;9.01;100.00;101971.78;5100207;28;20468;-82
2022/04/14 06:27:43;;;;;;;47.63;40.47;;;;;;;8.95;100.00;101949.81;5102237;28;20015;-82
2022/04/14 06:30:10;;;;;;;48.30;40.57;;;;;;;9.12;100.00;101971.38;5101294;28;20467;-84
2022/04/14 06:32:36;;;;;;;46.93;39.67;;;;;;;9.14;100.00;101969.38;5100131;28;20242;-83
2022/04/14 06:35:07;;;;;;;44.37;38.00;;;;;;;9.26;100.00;101986.91;5101519;28;20070;-82
2022/04/14 06:37:36;;;;;;;45.80;38.33;;;;;;;9.38;100.00;101971.09;5099511;28;20032;-92
2022/04/14 06:40:02;;;;;;;44.17;38.27;;;;;;;9.50;100.00;101971.56;5096577;28;20043;-84
2022/04/14 06:42:28;;;;;;;42.73;35.93;;;;;;;9.54;100.00;101975.59;5102379;28;20035;-84
2022/04/14 06:45:00;;;;;;;42.00;35.40;;;;;;;9.69;100.00;101977.56;5098808;28;20030;-83
2022/04/14 06:47:26;;;;;;;37.40;31.50;;;;;;;9.72;100.00;101972.59;5091290;28;20396;-87
2022/04/14 06:49:52;;;;;;;35.83;31.23;;;;;;;9.93;100.00;101979.28;5096817;28;20035;-93
2022/04/14 06:52:18;;;;;;;34.43;29.30;;;;;;;10.03;100.00;101979.03;5102832;28;20379;-82
2022/04/14 06:54:43;;;;;;;34.53;30.30;;;;;;;10.12;100.00;101967.13;5092381;28;20032;-84
2022/04/14 06:57:09;;;;;;;33.47;29.87;;;;;;;10.33;100.00;101977.25;5093546;28;20578;-86
2022/04/14 06:59:34;;;;;;;34.60;29.87;;;;;;;10.39;100.00;101967.56;5091619;28;20048;-84
2022/04/14 07:02:00;;;;;;;32.87;27.73;;;;;;;10.47;100.00;101962.94;5090696;28;20039;-83
2022/04/14 07:04:27;;;;;;;31.97;27.27;;;;;;;10.80;100.00;101991.59;5092809;28;20070;-83
2022/04/14 07:06:52;;;;;;;29.90;25.67;;;;;;;10.75;100.00;101972.34;5092474;28;20038;-85
2022/04/14 07:09:18;;;;;;;30.50;25.87;;;;;;;10.93;99.93;101980.97;5093859;28;20027;-88
2022/04/14 07:11:43;;;;;;;29.20;24.87;;;;;;;11.08;99.91;101980.97;5092606;28;20463;-87
2022/04/14 07:14:09;;;;;;;33.20;26.10;;;;;;;11.16;99.74;101977.28;5092471;28;20027;-87
2022/04/14 07:16:34;;;;;;;30.87;25.27;;;;;;;11.38;99.02;101991.78;5093662;28;20043;-86
2022/04/14 07:18:59;;;;;;;28.00;23.77;;;;;;;11.54;98.55;102007.00;5091723;28;20386;-88
2022/04/14 07:21:25;;;;;;;28.03;22.83;;;;;;;11.55;96.04;101999.72;5091130;28;20035;-85
2022/04/14 07:23:50;;;;;;;27.97;22.40;;;;;;;11.77;94.88;102014.16;5087850;28;20540;-84
2022/04/14 07:26:16;;;;;;;27.77;21.93;;;;;;;11.79;93.81;102003.94;5092215;28;20119;-87
2022/04/14 07:28:41;;;;;;;26.57;21.33;;;;;;;11.81;93.44;101991.03;5093972;28;20488;-85
2022/04/14 07:31:06;;;;;;;28.07;21.90;;;;;;;11.95;93.76;101986.59;5093555;28;20043;-86
2022/04/14 07:33:34;;;;;;;26.60;21.97;;;;;;;12.15;94.03;102003.13;5092698;28;20585;-85
2022/04/14 07:35:59;;;;;;;26.13;20.67;;;;;;;12.27;92.74;102000.72;5091970;28;20031;-83
2022/04/14 07:38:25;;;;;;;27.57;21.00;;;;;;;12.48;91.89;102006.16;5092780;28;20051;-84
2022/04/14 07:40:50;;;;;;;23.47;18.07;;;;;;;12.71;90.49;102028.69;5090905;28;20435;-84
2022/04/14 07:43:15;;;;;;;22.70;18.23;;;;;;;12.73;90.03;101999.41;5091390;28;20050;-84
2022/04/14 07:45:42;;;;;;;23.20;18.20;;;;;;;12.86;88.62;102007.66;5093269;28;20031;-85
2022/04/14 07:48:08;;;;;;;24.27;18.33;;;;;;;13.07;88.71;102005.91;5092114;28;20047;-88
2022/04/14 07:50:34;;;;;;;21.93;16.27;;;;;;;13.10;85.77;101997.38;5090855;28;20038;-88
2022/04/14 07:52:59;;;;;;;22.93;16.43;;;;;;;13.28;86.20;102005.84;5087770;28;20035;-87
2022/04/14 07:55:30;;;;;;;20.87;15.20;;;;;;;13.35;83.89;102014.03;5090564;28;20036;-88
2022/04/14 07:57:57;;;;;;;20.70;14.50;;;;;;;13.44;83.43;102003.88;5071054;28;20040;-88
2022/04/14 08:00:24;;;;;;;20.23;14.30;;;;;;;13.70;84.28;102015.91;5092602;28;20243;-83
2022/04/14 08:02:55;;;;;;;18.83;13.03;;;;;;;13.77;82.43;102005.88;5092138;28;20047;-85
2022/04/14 08:05:26;;;;;;;17.27;11.80;;;;;;;13.81;80.16;102009.84;5093039;28;20036;-84
2022/04/14 08:07:51;;;;;;;18.03;12.07;;;;;;;14.00;78.62;102028.13;5086494;28;20035;-84
2022/04/14 08:10:17;;;;;;;17.67;12.50;;;;;;;14.05;79.72;102010.31;5089432;28;20044;-85
2022/04/14 08:12:43;;;;;;;17.60;11.50;;;;;;;14.16;78.50;102012.47;5092892;28;20757;-84
2022/04/14 08:15:11;;;;;;;18.83;12.77;;;;;;;14.30;78.93;102008.69;5090878;28;20032;-87
2022/04/14 08:17:38;;;;;;;19.47;11.97;;;;;;;14.47;77.32;102021.91;5091174;28;20456;-86
2022/04/14 08:20:05;;;;;;;17.30;11.67;;;;;;;14.58;77.48;102013.13;5092112;28;20028;-86
2022/04/14 08:22:48;;;;;;;17.77;12.03;;;;;;;14.95;77.52;102023.63;5093413;28;20044;-91
2022/04/14 08:25:16;;;;;;;18.53;12.20;;;;;;;15.20;75.75;102026.50;5093157;28;20056;-85
2022/04/14 08:27:42;;;;;;;19.47;12.37;;;;;;;15.34;74.29;102005.47;5092374;28;20364;-84
2022/04/14 08:30:08;;;;;;;17.30;11.53;;;;;;;15.47;73.05;102016.31;5060452;28;20168;-83
2022/04/14 08:32:35;;;;;;;18.00;11.67;;;;;;;15.74;72.94;102018.94;5087641;28;20043;-84
2022/04/14 08:35:02;;;;;;;17.07;11.40;;;;;;;15.90;69.73;101998.50;5092787;28;20042;-88
2022/04/14 08:37:28;;;;;;;15.93;10.57;;;;;;;16.02;67.71;102007.69;5091389;28;20468;-88
2022/04/14 08:39:53;;;;;;;16.17;10.60;;;;;;;16.33;68.52;102000.53;5093971;28;20151;-87
2022/04/14 08:42:24;;;;;;;16.27;10.70;;;;;;;16.67;67.80;102006.56;5092574;28;20032;-88
2022/04/14 08:44:58;;;;;;;16.67;10.53;;;;;;;17.03;66.95;102009.63;5090955;28;20040;-85
2022/04/14 08:47:27;;;;;;;16.10;10.70;;;;;;;17.34;67.14;102003.16;5092814;28;20338;-85
2022/04/14 08:49:54;;;;;;;14.87;10.37;;;;;;;17.63;64.54;102008.91;5089944;28;20123;-88
2022/04/14 08:52:21;;;;;;;16.63;10.43;;;;;;;18.04;62.67;102006.47;5092537;28;20592;-86
2022/04/14 08:54:49;;;;;;;15.02;9.30;;;;;;;18.21;58.73;102018.44;5091536;28;20044;-83
2022/04/14 08:57:16;;;;;;;12.98;8.93;;;;;;;18.42;58.67;102009.91;5111571;28;20541;-85
2022/04/14 08:59:43;;;;;;;14.10;9.27;;;;;;;18.69;60.17;102008.38;5093736;28;20050;-88
2022/04/14 09:02:14;;;;;;;13.15;9.27;;;;;;;18.99;58.50;102015.69;5100599;28;20088;-87
2022/04/14 09:04:41;;;;;;;13.63;9.38;;;;;;;18.98;57.20;102027.72;5116246;28;20073;-85
2022/04/14 09:07:08;;;;;;;13.05;9.20;;;;;;;18.94;56.32;102021.06;5110544;27;20454;-86
2022/04/14 09:09:34;;;;;;;12.77;8.70;;;;;;;19.15;55.07;102013.28;5100906;28;20028;-85
2022/04/14 09:12:00;;;;;;;11.55;7.88;;;;;;;19.20;55.41;102022.47;5102150;28;20100;-85
2022/04/14 09:14:25;;;;;;;11.65;8.40;;;;;;;19.20;55.83;102010.63;5101614;28;20258;-87
2022/04/14 09:16:51;;;;;;;11.65;7.47;;;;;;;19.40;52.67;102018.50;5099266;28;20119;-90
2022/04/14 09:19:17;;;;;;;11.43;8.38;;;;;;;19.64;53.49;102001.94;5102294;28;20081;-86
2022/04/14 09:22:13;;;;;;;12.80;8.38;;;;;;;20.17;54.67;102030.19;5105799;28;20046;-86
2022/04/14 09:24:40;;;;;;;10.82;6.10;;;;;;;19.90;50.22;102020.63;5100966;28;20044;-88
2022/04/14 09:27:06;;;;;;;9.38;5.78;;;;;;;19.69;50.10;102011.13;5090275;28;20031;-88
2022/04/14 09:29:32;;;;;;;9.27;6.00;;;;;;;19.66;49.66;101995.09;5092209;28;20040;-89
2022/04/14 09:31:57;;;;;;;6.97;4.80;;;;;;;19.93;48.69;101991.78;5089018;28;20472;-93
2022/04/14 09:34:51;;;;;;;6.28;3.90;;;;;;;20.34;48.01;101994.41;5094704;28;20039;-89
2022/04/14 09:37:40;;;;;;;7.53;4.22;;;;;;;20.49;48.88;102022.19;5096430;28;20652;-87
2022/04/14 09:40:09;;;;;;;8.68;4.85;;;;;;;20.22;47.29;101987.09;5094555;28;20104;-88
2022/04/14 09:42:37;;;;;;;5.78;3.92;;;;;;;20.31;47.44;101983.91;5094364;28;20036;-89
2022/04/14 09:45:20;;;;;;;7.07;5.05;;;;;;;20.68;48.62;101983.38;5093521;28;20043;-88
2022/04/14 09:47:46;;;;;;;7.88;4.80;;;;;;;20.54;46.78;101983.72;5095576;28;20178;-87
2022/04/14 09:50:26;;;;;;;7.78;3.90;;;;;;;20.84;45.64;101992.75;5094054;28;20042;-89
2022/04/14 09:53:07;;;;;;;4.22;3.10;;;;;;;20.85;47.00;101988.91;5092652;28;20032;-87
2022/04/14 09:55:52;;;;;;;5.18;3.00;;;;;;;20.78;47.02;101982.72;5096606;28;20051;-89
2022/04/14 09:58:20;;;;;;;5.03;3.38;;;;;;;20.71;45.57;101961.72;5079925;28;20047;-88
2022/04/14 10:00:58;;;;;;;5.38;3.80;;;;;;;21.01;45.44;101982.53;5094642;28;20101;-88
2022/04/14 10:03:31;;;;;;;6.13;2.90;;;;;;;20.96;43.45;101976.94;5095436;28;20024;-83
2022/04/14 10:06:05;;;;;;;5.78;3.15;;;;;;;21.03;45.30;101974.00;5105134;28;20026;-83
2022/04/14 10:08:51;;;;;;;5.43;3.90;;;;;;;21.18;44.91;101981.63;5087283;28;20031;-86
2022/04/14 10:11:28;;;;;;;4.35;2.50;;;;;;;21.06;41.32;101979.81;5093944;28;20061;-84
2022/04/14 10:13:53;;;;;;;4.90;3.38;;;;;;;21.07;42.75;101969.66;5091665;28;20046;-89
2022/04/14 10:16:21;;;;;;;6.30;4.20;;;;;;;21.21;44.25;101981.94;5094003;28;20365;-87
2022/04/14 10:18:47;;;;;;;9.05;4.72;;;;;;;21.04;44.07;101982.00;5094731;28;20040;-87
2022/04/14 10:21:20;;;;;;;7.22;4.28;;;;;;;21.33;43.97;102001.13;5094636;28;20565;-88
2022/04/14 10:23:47;;;;;;;8.70;4.50;;;;;;;21.38;43.37;102003.94;5094607;28;20395;-83
2022/04/14 10:26:13;;;;;;;5.78;3.53;;;;;;;21.55;45.30;102000.31;5094726;28;20038;-88
2022/04/14 10:28:44;;;;;;;5.53;2.60;;;;;;;21.49;42.27;101998.56;5094926;28;20186;-84
2022/04/14 10:31:11;;;;;;;5.55;2.40;;;;;;;21.44;42.24;101996.56;5097721;28;20031;-83
2022/04/14 10:33:39;;;;;;;3.38;2.55;;;;;;;21.49;41.25;102026.16;5101447;28;20536;-83
2022/04/14 10:36:07;;;;;;;3.22;2.38;;;;;;;21.31;41.50;102010.72;5101003;28;20073;-83
2022/04/14 10:38:38;;;;;;;5.28;2.70;;;;;;;21.16;41.00;102005.84;5106024;28;20375;-82
2022/04/14 10:41:13;;;;;;;4.45;2.70;;;;;;;21.61;42.95;102035.16;5095318;28;20055;-85
2022/04/14 10:43:42;;;;;;;4.68;3.20;;;;;;;20.86;43.20;102018.09;5099073;28;20047;-86
2022/04/14 10:46:08;;;;;;;5.82;3.00;;;;;;;21.30;46.47;101996.13;5107059;28;20041;-82
2022/04/14 10:48:35;;;;;;;3.90;2.60;;;;;;;21.40;42.38;102007.25;5111310;28;20040;-84
2022/04/14 10:51:23;;;;;;;5.45;2.50;;;;;;;21.83;44.56;101990.16;5100667;28;20073;-84
2022/04/14 10:53:56;;;;;;;4.78;2.30;;;;;;;21.97;42.71;102010.69;5102824;28;20042;-84
2022/04/14 10:56:33;;;;;;;4.80;2.38;;;;;;;22.53;42.18;102017.84;5101458;27;20106;-88
2022/04/14 10:59:26;;;;;;;7.30;2.60;;;;;;;22.31;40.90;102004.13;5103257;28;20538;-84
2022/04/14 11:01:52;;;;;;;3.25;1.67;;;;;;;21.93;38.86;102015.06;5081185;28;20035;-84
2022/04/14 11:04:31;;;;;;;6.68;2.00;;;;;;;21.73;42.34;102021.19;5100998;27;20525;-83
2022/04/14 11:07:10;;;;;;;3.83;2.00;;;;;;;21.52;41.44;102018.16;5093945;28;20075;-84
2022/04/14 11:09:38;;;;;;;3.65;2.40;;;;;;;21.59;42.45;102015.25;5093966;28;20108;-87
2022/04/14 11:12:08;;;;;;;3.60;2.38;;;;;;;21.62;41.08;101986.31;5092685;28;20486;-87